Weather at Othawa Airport

Public forecast

Using degrees Celsius for public forecast. Weather courtesy of forecast.io.

Closest aviation weather report (METAR) to Othawa Airport

Closest report is Hoedspruit Air Force Base Airport, 29.1 nm (53.9 km) NW. Retrieved 2022/05/19 10:00 UTC (1 hour ago):

FAHS 191000Z AUTO 31007KT //// // ////// 26/14 Q1019

Closest aviation forecast (TAF) to Othawa Airport

Forecast is more than 12 hours old.

Closest forecast is Hoedspruit Air Force Base Airport, 29.1 nm (53.9 km) NW. Retrieved 2017/05/23 04:01 UTC (5 years ago):

TAF FAHS 230300Z 2304/2315 VRB02KT CAVOK TX29/2312ZTN12/2304Z